Time;durP1;ratioP1;P1;durP2;ratioP2;P2;SDS_P1;SDS_P2;PMS_P1;PMS_P2;Temp;Humidity;BMP_temperature;BMP_pressure;BME280_temperature;BME280_humidity;BME280_pressure;Samples;Min_cycle;Max_cycle;Signal;HPM_P1;HPM_P2
2022/05/30 00:01:10;;;;;;;2.07;1.57;;;6.50;99.90;;;;;;5068866;28;20894;-74
2022/05/30 00:03:36;;;;;;;3.23;1.40;;;6.40;99.90;;;;;;5051051;28;20241;-73
2022/05/30 00:06:06;;;;;;;3.73;1.80;;;6.50;99.90;;;;;;5068704;28;20493;-73
2022/05/30 00:08:31;;;;;;;3.53;1.37;;;6.60;99.90;;;;;;5050873;28;20420;-73
2022/05/30 00:11:04;;;;;;;4.63;1.73;;;6.60;99.90;;;;;;5068784;28;20429;-73
2022/05/30 00:13:30;;;;;;;3.07;2.00;;;6.60;99.90;;;;;;5068181;28;20201;-73
2022/05/30 00:15:57;;;;;;;5.73;2.10;;;6.60;99.90;;;;;;5068773;28;20453;-73
2022/05/30 00:18:23;;;;;;;1.47;1.33;;;6.60;99.90;;;;;;5034114;28;21011;-73
2022/05/30 00:20:49;;;;;;;1.43;1.33;;;6.60;99.90;;;;;;5068607;28;20429;-73
2022/05/30 00:23:15;;;;;;;5.87;1.67;;;6.50;99.90;;;;;;5068417;28;20941;-73
2022/05/30 00:25:42;;;;;;;5.60;1.90;;;6.50;99.90;;;;;;5068415;28;20467;-73
2022/05/30 00:28:08;;;;;;;4.63;1.57;;;6.50;99.90;;;;;;5050581;28;20768;-73
2022/05/30 00:30:34;;;;;;;4.97;1.80;;;6.40;99.90;;;;;;5068409;28;20424;-73
2022/05/30 00:32:59;;;;;;;2.60;1.47;;;6.40;99.90;;;;;;5068390;28;20202;-73
2022/05/30 00:35:25;;;;;;;1.97;1.80;;;6.40;99.90;;;;;;5033532;28;20233;-74
2022/05/30 00:37:51;;;;;;;3.50;1.90;;;6.30;99.90;;;;;;5068288;28;20270;-73
2022/05/30 00:40:16;;;;;;;3.47;1.87;;;6.30;99.90;;;;;;5068264;28;20189;-73
2022/05/30 00:42:42;;;;;;;4.27;1.97;;;6.30;99.90;;;;;;5068099;28;20211;-73
2022/05/30 00:45:08;;;;;;;6.90;1.83;;;6.30;99.90;;;;;;5050196;28;20234;-73
2022/05/30 00:47:34;;;;;;;1.57;1.20;;;6.30;99.90;;;;;;5049889;28;20191;-74
2022/05/30 00:50:00;;;;;;;2.40;1.70;;;6.30;99.90;;;;;;5050225;28;20417;-74
2022/05/30 00:52:32;;;;;;;2.97;1.50;;;6.30;99.90;;;;;;5050265;28;20853;-74
2022/05/30 00:55:05;;;;;;;3.60;1.90;;;6.20;99.90;;;;;;5068171;28;20423;-73
2022/05/30 00:57:32;;;;;;;2.50;1.50;;;6.30;99.90;;;;;;5068074;28;20417;-74
2022/05/30 01:00:14;;;;;;;3.23;1.60;;;6.20;99.90;;;;;;5068195;28;20455;-73
2022/05/30 01:02:41;;;;;;;5.03;1.70;;;6.20;99.90;;;;;;5068138;28;20465;-73
2022/05/30 01:08:01;;;;;;;4.03;2.30;;;6.20;99.90;;;;;;5068346;28;20472;-73
2022/05/30 01:10:27;;;;;;;2.40;1.37;;;6.00;99.90;;;;;;5068164;28;20413;-73
2022/05/30 01:12:57;;;;;;;5.27;1.97;;;5.90;99.90;;;;;;5050050;28;20437;-73
2022/05/30 01:15:26;;;;;;;2.90;1.70;;;5.80;99.90;;;;;;5067864;28;20768;-73
2022/05/30 01:18:10;;;;;;;1.60;1.40;;;5.70;99.90;;;;;;5049860;28;20434;-73
2022/05/30 01:21:02;;;;;;;3.30;1.50;;;5.70;99.90;;;;;;5049807;28;20425;-74
2022/05/30 01:23:49;;;;;;;2.60;1.77;;;5.80;99.90;;;;;;5069104;28;20489;-74
2022/05/30 01:26:24;;;;;;;2.90;1.77;;;5.80;99.90;;;;;;5053278;28;20473;-73
2022/05/30 01:28:54;;;;;;;2.20;2.00;;;5.80;99.90;;;;;;5071510;28;20833;-73
2022/05/30 01:31:20;;;;;;;2.13;1.70;;;5.70;99.90;;;;;;5053215;28;20486;-73
2022/05/30 01:33:46;;;;;;;2.60;2.20;;;5.60;99.90;;;;;;5071486;28;20433;-73
2022/05/30 01:36:12;;;;;;;4.93;1.90;;;5.60;99.90;;;;;;5054408;28;20433;-73
2022/05/30 01:38:37;;;;;;;3.83;1.90;;;5.70;99.90;;;;;;5071513;28;20226;-74
2022/05/30 01:41:03;;;;;;;2.97;2.00;;;5.60;99.90;;;;;;5071345;28;20422;-75
2022/05/30 01:43:30;;;;;;;11.07;3.73;;;5.60;99.90;;;;;;5071101;28;20253;-74
2022/05/30 01:45:55;;;;;;;4.20;1.53;;;5.60;99.90;;;;;;5071082;28;20527;-74
2022/05/30 01:48:21;;;;;;;4.60;2.00;;;5.60;99.90;;;;;;5071062;28;20739;-75
2022/05/30 01:50:47;;;;;;;3.93;2.20;;;5.70;99.90;;;;;;5053067;28;20570;-74
2022/05/30 01:53:13;;;;;;;3.50;2.00;;;5.60;99.90;;;;;;5070941;28;20206;-75
2022/05/30 01:55:39;;;;;;;4.10;2.00;;;5.50;99.90;;;;;;5070971;28;20995;-74
2022/05/30 01:58:05;;;;;;;2.70;1.87;;;5.50;99.90;;;;;;5052818;28;20512;-74
2022/05/30 02:00:33;;;;;;;4.53;1.93;;;5.30;99.90;;;;;;5052665;28;20202;-74
2022/05/30 02:02:58;;;;;;;2.60;2.10;;;5.20;99.90;;;;;;5070830;28;20445;-74
2022/05/30 02:05:24;;;;;;;2.53;1.70;;;5.10;99.90;;;;;;5052710;28;20461;-74
2022/05/30 02:07:50;;;;;;;1.57;1.43;;;4.90;99.90;;;;;;5052525;28;20218;-73
2022/05/30 02:10:15;;;;;;;5.90;1.87;;;4.80;99.90;;;;;;5052741;28;20198;-74
2022/05/30 02:12:41;;;;;;;3.10;1.83;;;4.70;99.90;;;;;;5070670;28;20205;-75
2022/05/30 02:15:07;;;;;;;3.30;2.10;;;4.70;99.90;;;;;;5070689;28;20179;-74
2022/05/30 02:17:34;;;;;;;2.50;1.60;;;4.80;99.90;;;;;;5070615;28;20187;-74
2022/05/30 02:20:00;;;;;;;3.50;2.10;;;4.90;99.90;;;;;;5070644;28;20425;-74
2022/05/30 02:22:29;;;;;;;4.23;2.20;;;4.90;99.90;;;;;;5070647;28;20414;-74
2022/05/30 02:24:56;;;;;;;9.13;2.90;;;5.00;99.90;;;;;;5070428;28;20199;-74
2022/05/30 02:27:22;;;;;;;7.00;2.30;;;5.10;99.90;;;;;;5052292;28;20468;-75
2022/05/30 02:29:47;;;;;;;10.33;1.97;;;5.10;99.90;;;;;;5070542;28;20425;-73
2022/05/30 02:32:13;;;;;;;3.17;2.20;;;5.20;99.90;;;;;;5052343;28;20194;-73
2022/05/30 02:37:23;;;;;;;2.03;1.67;;;5.10;99.90;;;;;;5070791;28;20217;-73
2022/05/30 02:39:49;;;;;;;2.00;1.80;;;4.90;99.90;;;;;;5035843;28;20437;-75
2022/05/30 02:42:15;;;;;;;5.17;2.03;;;4.90;99.90;;;;;;5052298;28;20623;-75
2022/05/30 02:44:40;;;;;;;3.47;2.10;;;4.70;99.90;;;;;;5070276;28;20628;-75
2022/05/30 02:47:06;;;;;;;2.10;1.70;;;4.40;99.90;;;;;;5070362;28;20226;-75
2022/05/30 02:49:32;;;;;;;17.73;2.37;;;4.30;99.90;;;;;;5070014;28;20503;-75
2022/05/30 02:51:59;;;;;;;3.33;2.23;;;4.30;99.90;;;;;;5070136;28;20519;-74
2022/05/30 02:54:25;;;;;;;4.00;2.27;;;4.30;99.90;;;;;;5052155;28;20445;-75
2022/05/30 02:56:54;;;;;;;5.17;2.33;;;4.40;99.90;;;;;;5070668;28;20468;-74
2022/05/30 02:59:20;;;;;;;3.73;2.13;;;4.50;99.90;;;;;;5070736;28;20773;-75
2022/05/30 03:01:46;;;;;;;4.80;2.17;;;4.60;99.90;;;;;;5070447;28;20431;-75
2022/05/30 03:04:12;;;;;;;4.80;2.03;;;4.70;99.90;;;;;;5070193;28;21293;-75
2022/05/30 03:06:39;;;;;;;6.90;2.40;;;4.70;99.90;;;;;;5070045;28;20517;-75
2022/05/30 03:09:06;;;;;;;4.43;2.57;;;4.70;99.90;;;;;;5070158;28;20424;-75
2022/05/30 03:11:32;;;;;;;5.00;1.80;;;4.70;99.90;;;;;;5051986;28;20414;-75
2022/05/30 03:13:58;;;;;;;3.10;2.10;;;4.60;99.90;;;;;;5069893;28;20445;-75
2022/05/30 03:16:24;;;;;;;3.33;2.00;;;4.70;99.90;;;;;;5069909;28;20806;-75
2022/05/30 03:18:50;;;;;;;1.87;1.60;;;4.80;99.90;;;;;;5071281;28;20429;-73
2022/05/30 03:21:16;;;;;;;1.60;1.50;;;4.90;99.90;;;;;;5052690;28;20426;-73
2022/05/30 03:23:42;;;;;;;2.40;2.20;;;4.90;99.90;;;;;;5052315;28;20234;-73
2022/05/30 03:26:08;;;;;;;4.90;2.03;;;4.90;99.90;;;;;;5070160;28;20210;-73
2022/05/30 03:28:34;;;;;;;5.17;2.20;;;4.90;99.90;;;;;;5070533;28;20417;-73
2022/05/30 03:31:01;;;;;;;5.00;2.77;;;4.90;99.90;;;;;;5052282;28;21124;-73
2022/05/30 03:33:28;;;;;;;3.20;2.60;;;4.90;99.90;;;;;;5052211;28;20576;-73
2022/05/30 03:35:53;;;;;;;7.93;2.40;;;4.90;99.90;;;;;;5070064;28;20944;-74
2022/05/30 03:38:19;;;;;;;6.30;2.17;;;4.90;99.90;;;;;;5069911;28;20512;-73
2022/05/30 03:40:45;;;;;;;7.73;2.40;;;5.00;99.90;;;;;;5069592;28;20494;-73
2022/05/30 03:43:11;;;;;;;5.80;1.80;;;4.90;99.90;;;;;;5069296;28;20235;-73
2022/05/30 03:45:39;;;;;;;2.70;2.43;;;4.90;99.90;;;;;;5069184;28;20211;-73
2022/05/30 03:48:06;;;;;;;3.40;2.30;;;4.90;99.90;;;;;;5068259;28;20422;-73
2022/05/30 03:50:32;;;;;;;3.83;1.60;;;4.80;99.90;;;;;;5069032;28;20418;-73
2022/05/30 03:53:04;;;;;;;3.10;2.80;;;4.80;99.90;;;;;;5051103;28;20499;-76
2022/05/30 03:55:34;;;;;;;4.93;2.20;;;4.90;99.90;;;;;;5069154;28;20421;-76
2022/05/30 03:58:01;;;;;;;12.43;2.73;;;5.00;99.90;;;;;;5051425;28;20467;-75
2022/05/30 04:00:26;;;;;;;2.63;1.97;;;4.90;99.90;;;;;;5050805;28;20425;-73
2022/05/30 04:02:52;;;;;;;3.30;1.90;;;4.90;99.90;;;;;;5050840;28;20950;-73
2022/05/30 04:05:19;;;;;;;6.03;2.40;;;4.90;99.90;;;;;;5069013;28;20210;-73
2022/05/30 04:07:45;;;;;;;2.10;2.00;;;5.00;99.90;;;;;;5069224;28;20205;-73
2022/05/30 04:10:11;;;;;;;3.03;2.33;;;5.10;99.90;;;;;;5034420;28;20907;-74
2022/05/30 04:12:37;;;;;;;5.33;2.37;;;4.90;99.90;;;;;;5068983;28;20655;-73
2022/05/30 04:15:05;;;;;;;2.83;2.30;;;5.00;99.90;;;;;;5051470;28;20447;-76
2022/05/30 04:17:33;;;;;;;4.03;2.43;;;5.10;99.90;;;;;;5069562;28;20178;-76
2022/05/30 04:19:59;;;;;;;2.40;2.20;;;5.30;99.90;;;;;;5069509;28;20413;-76
2022/05/30 04:22:24;;;;;;;1.90;1.80;;;5.40;99.90;;;;;;5051256;28;21062;-76
2022/05/30 04:24:51;;;;;;;4.83;2.27;;;5.60;99.90;;;;;;5051357;28;20273;-76
2022/05/30 04:27:17;;;;;;;3.23;2.20;;;5.70;99.90;;;;;;5051054;28;20668;-76
2022/05/30 04:29:43;;;;;;;6.40;4.50;;;5.70;99.90;;;;;;5049810;28;20427;-75
2022/05/30 04:32:09;;;;;;;13.63;3.70;;;5.60;99.90;;;;;;5068124;28;20319;-76
2022/05/30 04:34:36;;;;;;;4.63;2.63;;;5.70;99.90;;;;;;5068952;28;20298;-76
2022/05/30 04:37:03;;;;;;;5.93;3.00;;;5.80;99.90;;;;;;5049835;28;20429;-75
2022/05/30 04:39:29;;;;;;;2.93;1.97;;;5.80;99.90;;;;;;5049423;28;20519;-76
2022/05/30 04:41:54;;;;;;;2.40;2.10;;;5.70;99.90;;;;;;5067192;28;20911;-76
2022/05/30 04:44:20;;;;;;;2.20;2.00;;;5.70;99.90;;;;;;5048719;28;20313;-76
2022/05/30 04:46:54;;;;;;;4.70;2.30;;;5.80;99.90;;;;;;5066962;28;20241;-76
2022/05/30 04:49:20;;;;;;;2.70;1.60;;;5.90;99.90;;;;;;5067160;28;20733;-76
2022/05/30 04:51:46;;;;;;;2.00;1.80;;;6.10;99.90;;;;;;5048735;28;20429;-76
2022/05/30 04:54:11;;;;;;;4.23;2.13;;;6.30;99.90;;;;;;5048801;28;20606;-76
2022/05/30 04:56:37;;;;;;;4.30;1.60;;;6.40;99.90;;;;;;5066825;28;20182;-76
2022/05/30 04:59:04;;;;;;;3.20;2.10;;;6.50;99.90;;;;;;5069055;28;20186;-76
2022/05/30 05:01:30;;;;;;;5.80;1.70;;;6.70;99.90;;;;;;5052292;28;20568;-76
2022/05/30 05:03:56;;;;;;;2.07;1.57;;;6.80;99.90;;;;;;5070443;28;20437;-76
2022/05/30 05:06:21;;;;;;;5.80;2.20;;;7.10;99.90;;;;;;5052241;28;20533;-76
2022/05/30 05:08:59;;;;;;;3.63;2.00;;;7.20;99.90;;;;;;5070313;28;20421;-76
2022/05/30 05:11:27;;;;;;;7.17;2.30;;;7.30;99.90;;;;;;5052221;28;20183;-76
2022/05/30 05:13:54;;;;;;;2.43;2.20;;;7.40;99.90;;;;;;5070314;28;20486;-76
2022/05/30 05:16:23;;;;;;;2.30;1.57;;;7.50;99.90;;;;;;5070303;28;20459;-76
2022/05/30 05:18:49;;;;;;;3.63;1.80;;;7.70;99.90;;;;;;5052032;28;20980;-76
2022/05/30 05:21:20;;;;;;;2.33;1.93;;;7.80;99.90;;;;;;5070159;28;20422;-76
2022/05/30 05:23:47;;;;;;;3.33;1.77;;;8.10;99.90;;;;;;5051886;28;21024;-76
2022/05/30 05:26:12;;;;;;;1.87;1.43;;;8.00;99.90;;;;;;5070054;28;20855;-77
2022/05/30 05:28:38;;;;;;;2.80;2.13;;;8.00;99.90;;;;;;5051903;28;20433;-76
2022/05/30 05:31:06;;;;;;;2.13;1.77;;;8.20;99.90;;;;;;5069878;28;20421;-76
2022/05/30 05:33:32;;;;;;;7.00;2.30;;;8.20;99.90;;;;;;5069897;28;20199;-76
2022/05/30 05:35:58;;;;;;;2.70;2.50;;;8.40;99.90;;;;;;5035240;28;20432;-76
2022/05/30 05:38:24;;;;;;;4.43;2.27;;;8.60;99.90;;;;;;5069856;28;20194;-77
2022/05/30 05:40:50;;;;;;;4.53;2.40;;;8.80;99.90;;;;;;5069959;28;20489;-77
2022/05/30 05:43:16;;;;;;;12.80;2.73;;;8.90;99.90;;;;;;5069571;28;20227;-76
2022/05/30 05:45:43;;;;;;;3.60;3.30;;;9.00;99.90;;;;;;5069711;28;20468;-74
2022/05/30 05:48:09;;;;;;;3.60;3.30;;;9.00;99.90;;;;;;5051706;28;20742;-74
2022/05/30 05:50:43;;;;;;;3.13;2.80;;;9.00;99.90;;;;;;5069587;28;20422;-74
2022/05/30 05:53:10;;;;;;;3.67;3.37;;;9.20;99.90;;;;;;5051410;28;20436;-74
2022/05/30 05:55:37;;;;;;;3.50;3.00;;;9.20;99.90;;;;;;5069677;28;20998;-74
2022/05/30 05:58:04;;;;;;;5.10;2.67;;;9.30;99.90;;;;;;5069622;28;20445;-74
2022/05/30 06:00:31;;;;;;;8.47;3.50;;;9.50;99.90;;;;;;5051689;28;20479;-74
2022/05/30 06:02:57;;;;;;;4.73;3.27;;;9.80;99.90;;;;;;5069329;28;20476;-74
2022/05/30 06:05:23;;;;;;;7.03;3.10;;;9.90;99.90;;;;;;5069400;28;20572;-74
2022/05/30 06:07:49;;;;;;;4.10;2.57;;;10.00;99.90;;;;;;5069425;28;20416;-75
2022/05/30 06:10:15;;;;;;;10.53;3.60;;;9.90;99.90;;;;;;5068396;28;20802;-75
2022/05/30 06:12:43;;;;;;;6.17;3.53;;;10.00;99.90;;;;;;5069274;28;20789;-74
2022/05/30 06:15:11;;;;;;;2.50;2.30;;;10.20;99.90;;;;;;5069285;28;20417;-75
2022/05/30 06:17:41;;;;;;;3.70;2.50;;;10.30;99.90;;;;;;5051373;28;20840;-75
2022/05/30 06:20:09;;;;;;;5.30;2.40;;;10.50;99.90;;;;;;5051095;28;20441;-75
2022/05/30 06:22:34;;;;;;;6.80;2.80;;;10.60;99.90;;;;;;5050884;28;20434;-75
2022/05/30 06:25:00;;;;;;;2.73;2.53;;;10.60;99.90;;;;;;5068947;28;20454;-75
2022/05/30 06:27:26;;;;;;;5.20;2.47;;;10.70;99.90;;;;;;5034389;28;20661;-75
2022/05/30 06:29:52;;;;;;;3.50;2.60;;;10.80;99.90;;;;;;5068940;28;20192;-75
2022/05/30 06:32:18;;;;;;;7.70;3.03;;;10.90;99.90;;;;;;5050745;28;20185;-75
2022/05/30 06:34:44;;;;;;;6.03;2.57;;;10.90;99.90;;;;;;5034070;28;20438;-75
2022/05/30 06:37:10;;;;;;;3.17;2.10;;;10.90;99.90;;;;;;5033977;28;20192;-75
2022/05/30 06:39:37;;;;;;;5.80;2.60;;;11.10;99.90;;;;;;5068915;28;20287;-75
2022/05/30 06:42:07;;;;;;;5.17;2.10;;;11.10;99.90;;;;;;5050729;28;20911;-75
2022/05/30 06:44:35;;;;;;;8.13;2.07;;;11.20;99.90;;;;;;5050194;28;20480;-75
2022/05/30 06:47:01;;;;;;;4.43;2.23;;;11.30;99.90;;;;;;5068568;28;21087;-74
2022/05/30 06:49:27;;;;;;;2.07;1.90;;;11.50;99.90;;;;;;5068433;28;20432;-75
2022/05/30 06:51:52;;;;;;;2.40;1.97;;;11.70;99.90;;;;;;5068660;28;20462;-75
2022/05/30 06:54:18;;;;;;;2.50;2.30;;;11.80;99.90;;;;;;5068466;28;20208;-75
2022/05/30 06:59:29;;;;;;;8.27;2.37;;;11.90;99.90;;;;;;5068848;28;20447;-75
2022/05/30 07:01:55;;;;;;;3.27;1.67;;;11.80;99.90;;;;;;5050508;28;20430;-75
2022/05/30 07:04:21;;;;;;;4.10;1.70;;;11.70;99.90;;;;;;5068502;28;21148;-75
2022/05/30 07:06:47;;;;;;;2.27;1.87;;;11.70;99.90;;;;;;5050526;28;20220;-75
2022/05/30 07:09:13;;;;;;;2.00;1.43;;;11.60;99.90;;;;;;5034228;28;20614;-75
2022/05/30 07:11:39;;;;;;;3.90;2.13;;;11.70;99.90;;;;;;5068815;28;20235;-75
2022/05/30 07:14:12;;;;;;;6.00;1.63;;;11.80;99.90;;;;;;5033674;28;20443;-75
2022/05/30 07:16:39;;;;;;;7.60;1.87;;;11.90;99.90;;;;;;5050257;28;20501;-75
2022/05/30 07:19:07;;;;;;;2.57;1.60;;;11.90;99.90;;;;;;5050315;28;20424;-75
2022/05/30 07:21:33;;;;;;;1.67;1.47;;;11.90;99.90;;;;;;5067958;28;20841;-75
2022/05/30 07:23:59;;;;;;;2.43;1.43;;;11.80;99.90;;;;;;5068138;28;20996;-75
2022/05/30 07:26:24;;;;;;;2.63;1.30;;;12.00;99.90;;;;;;5067981;28;20470;-75
2022/05/30 07:28:53;;;;;;;5.50;1.33;;;12.10;99.90;;;;;;5049780;28;20186;-75
2022/05/30 07:31:21;;;;;;;3.60;1.90;;;12.10;99.90;;;;;;5067945;28;20562;-74
2022/05/30 07:33:48;;;;;;;2.73;1.47;;;12.10;99.90;;;;;;5067922;28;20436;-76
2022/05/30 07:36:25;;;;;;;5.23;1.70;;;12.10;99.90;;;;;;5068141;28;20420;-76
2022/05/30 07:38:52;;;;;;;4.90;1.70;;;12.20;99.90;;;;;;5050270;28;20506;-76
2022/05/30 07:41:19;;;;;;;3.63;1.20;;;12.10;99.90;;;;;;5068076;28;20421;-77
2022/05/30 07:43:45;;;;;;;6.20;1.83;;;12.30;99.90;;;;;;5050226;28;20966;-76
2022/05/30 07:46:14;;;;;;;3.00;1.70;;;12.40;99.90;;;;;;5050888;28;20478;-76
2022/05/30 07:48:40;;;;;;;2.27;1.43;;;12.50;99.90;;;;;;5034092;28;21358;-76
2022/05/30 07:51:07;;;;;;;2.60;1.90;;;12.50;99.90;;;;;;5068454;28;20425;-77
2022/05/30 07:53:34;;;;;;;8.10;2.00;;;12.70;99.90;;;;;;5050322;28;20802;-76
2022/05/30 07:56:02;;;;;;;4.20;1.80;;;12.80;99.90;;;;;;5050171;28;21100;-77
2022/05/30 07:58:28;;;;;;;2.20;1.60;;;12.80;99.90;;;;;;5068229;28;20433;-76
2022/05/30 08:00:54;;;;;;;3.83;1.60;;;12.80;99.90;;;;;;5068412;28;20432;-77
2022/05/30 08:03:21;;;;;;;15.30;2.07;;;13.00;99.90;;;;;;5068330;28;20206;-76
2022/05/30 08:05:47;;;;;;;3.60;1.87;;;13.10;99.90;;;;;;5069365;28;20236;-77
2022/05/30 08:08:15;;;;;;;5.00;1.80;;;13.20;99.90;;;;;;5085654;28;20417;-76
2022/05/30 08:10:41;;;;;;;3.33;2.03;;;13.30;99.90;;;;;;5052788;28;20427;-76
2022/05/30 08:13:06;;;;;;;4.17;1.70;;;13.40;99.90;;;;;;5070213;28;20440;-76
2022/05/30 08:15:32;;;;;;;3.07;1.90;;;13.70;99.90;;;;;;5069320;28;20417;-76
2022/05/30 08:18:00;;;;;;;6.73;2.40;;;13.80;99.90;;;;;;5050712;28;20962;-76
2022/05/30 08:20:28;;;;;;;2.03;1.50;;;14.00;99.90;;;;;;5069694;28;20394;-76
2022/05/30 08:22:54;;;;;;;5.00;1.93;;;14.00;99.90;;;;;;5069689;28;20491;-76
2022/05/30 08:25:21;;;;;;;5.83;1.40;;;14.20;99.90;;;;;;5069046;28;20431;-76
2022/05/30 08:27:48;;;;;;;4.83;1.83;;;14.20;99.90;;;;;;5067884;28;20927;-77
2022/05/30 08:30:18;;;;;;;4.60;1.80;;;14.40;99.90;;;;;;5067939;28;20423;-76
2022/05/30 08:32:45;;;;;;;4.70;1.77;;;14.60;99.90;;;;;;5050772;28;20813;-76
2022/05/30 08:35:14;;;;;;;6.27;1.23;;;14.70;99.90;;;;;;5056061;28;20417;-76
2022/05/30 08:37:41;;;;;;;7.50;2.37;;;15.00;99.90;;;;;;5073985;28;20459;-76
2022/05/30 08:43:00;;;;;;;3.00;1.60;;;15.20;97.50;;;;;;5073865;28;20479;-77
2022/05/30 08:45:26;;;;;;;3.47;1.60;;;15.50;98.40;;;;;;5073899;28;20510;-77
2022/05/30 08:47:55;;;;;;;4.27;1.60;;;15.80;99.70;;;;;;5055898;28;20190;-76
2022/05/30 08:50:35;;;;;;;5.73;1.40;;;15.90;97.80;;;;;;5073997;28;20441;-76
2022/05/30 08:53:46;;;;;;;2.90;1.40;;;16.10;96.50;;;;;;5074200;28;20435;-76
2022/05/30 08:56:33;;;;;;;2.40;1.10;;;16.40;95.10;;;;;;5036299;28;20579;-77
2022/05/30 08:59:20;;;;;;;12.03;1.83;;;16.50;91.60;;;;;;5073984;28;20401;-76
2022/05/30 09:02:12;;;;;;;2.20;1.30;;;16.70;93.80;;;;;;5074079;28;20816;-77
2022/05/30 09:04:49;;;;;;;3.90;1.30;;;16.90;88.90;;;;;;5074016;28;20845;-76
2022/05/30 09:07:20;;;;;;;1.97;0.90;;;17.10;89.30;;;;;;5056226;28;20565;-76
2022/05/30 09:09:49;;;;;;;9.43;1.63;;;17.50;85.20;;;;;;5074385;28;20444;-77
2022/05/30 09:12:26;;;;;;;2.50;1.10;;;17.60;82.50;;;;;;5074207;28;20406;-76
2022/05/30 09:15:17;;;;;;;3.00;1.43;;;17.80;86.00;;;;;;5074426;28;20431;-78
2022/05/30 09:17:47;;;;;;;2.83;1.17;;;18.10;80.00;;;;;;5062524;28;20428;-77
2022/05/30 09:20:16;;;;;;;2.00;1.10;;;18.30;79.60;;;;;;5056125;28;20799;-76
2022/05/30 09:22:42;;;;;;;1.30;0.90;;;18.50;75.30;;;;;;5056272;28;20545;-77
2022/05/30 09:28:00;;;;;;;4.40;1.07;;;19.00;70.20;;;;;;5074962;28;21134;-76
2022/05/30 09:30:35;;;;;;;2.30;0.90;;;19.10;72.10;;;;;;5075050;28;20973;-76
2022/05/30 09:33:14;;;;;;;2.60;0.90;;;19.30;64.40;;;;;;5074873;28;20575;-76
2022/05/30 09:35:42;;;;;;;2.20;1.30;;;19.60;61.80;;;;;;5074967;28;20439;-77
2022/05/30 09:38:21;;;;;;;5.17;1.40;;;19.80;58.80;;;;;;5057013;28;21259;-76
2022/05/30 09:40:52;;;;;;;4.23;1.20;;;19.70;56.80;;;;;;5074839;28;20482;-76
2022/05/30 09:43:27;;;;;;;5.53;1.27;;;19.70;59.00;;;;;;5056636;28;20462;-76
2022/05/30 09:45:54;;;;;;;1.83;1.10;;;19.60;56.70;;;;;;5071722;28;20554;-76
2022/05/30 09:48:20;;;;;;;3.23;1.30;;;19.80;58.30;;;;;;5053850;28;20409;-75
2022/05/30 09:50:58;;;;;;;1.87;1.10;;;19.90;58.60;;;;;;5071822;28;20507;-76
2022/05/30 09:53:47;;;;;;;1.60;1.00;;;20.10;59.30;;;;;;5071511;28;20562;-75
2022/05/30 09:56:16;;;;;;;1.80;0.70;;;20.20;58.60;;;;;;5071504;28;20446;-76
2022/05/30 09:58:48;;;;;;;2.20;1.30;;;20.50;57.50;;;;;;5071358;28;20417;-76
2022/05/30 10:01:24;;;;;;;2.80;1.00;;;20.80;57.30;;;;;;5053389;28;20844;-76
2022/05/30 10:03:52;;;;;;;6.50;1.07;;;20.60;57.40;;;;;;5053093;28;20437;-76
2022/05/30 10:06:25;;;;;;;1.47;1.10;;;20.70;57.70;;;;;;5053612;28;20461;-76
2022/05/30 10:09:08;;;;;;;1.87;0.80;;;21.00;57.70;;;;;;5053737;28;20460;-76
2022/05/30 10:11:35;;;;;;;2.27;0.97;;;20.90;54.60;;;;;;5070877;28;20980;-76
2022/05/30 10:14:20;;;;;;;6.27;1.03;;;20.90;56.30;;;;;;5070574;28;20516;-76
2022/05/30 10:16:46;;;;;;;2.30;0.87;;;21.10;56.60;;;;;;5070740;28;20422;-75
2022/05/30 10:19:26;;;;;;;3.63;0.97;;;21.10;56.70;;;;;;5070408;28;20405;-76
2022/05/30 10:28:15;;;;;;;2.30;1.10;;;21.30;55.10;;;;;;5070326;28;20412;-76
2022/05/30 10:30:51;;;;;;;3.13;1.63;;;21.40;55.80;;;;;;5070588;28;20412;-76
2022/05/30 10:33:37;;;;;;;3.23;1.17;;;21.30;54.50;;;;;;5052745;28;20972;-76
2022/05/30 10:36:28;;;;;;;2.40;1.00;;;21.30;52.70;;;;;;5070674;28;21202;-76
2022/05/30 10:39:03;;;;;;;2.20;0.90;;;21.80;57.10;;;;;;5070443;28;20423;-76
2022/05/30 10:41:44;;;;;;;1.77;0.90;;;22.00;56.40;;;;;;5070753;28;20430;-76
2022/05/30 10:44:20;;;;;;;2.80;0.80;;;22.00;55.50;;;;;;5052585;28;20844;-76
2022/05/30 10:47:00;;;;;;;8.07;1.10;;;22.30;57.40;;;;;;5052841;28;20483;-76
2022/05/30 10:49:32;;;;;;;3.83;1.00;;;22.20;56.80;;;;;;5070745;28;20924;-76
2022/05/30 10:52:24;;;;;;;1.40;1.00;;;21.20;53.50;;;;;;5070293;28;20895;-76
2022/05/30 10:54:58;;;;;;;1.53;0.90;;;20.40;53.80;;;;;;5038669;28;20792;-74
2022/05/30 10:57:35;;;;;;;2.80;1.10;;;19.80;56.80;;;;;;5051880;28;20469;-74
2022/05/30 11:00:05;;;;;;;3.63;1.17;;;19.70;57.80;;;;;;5070807;28;20447;-74
2022/05/30 11:03:18;;;;;;;1.60;0.90;;;19.90;58.40;;;;;;5051628;28;20795;-74
2022/05/30 11:05:49;;;;;;;2.50;0.90;;;20.70;61.30;;;;;;5069520;28;20477;-74
2022/05/30 11:08:27;;;;;;;1.50;0.90;;;21.00;57.00;;;;;;5051836;28;20444;-75
2022/05/30 11:10:59;;;;;;;2.20;1.13;;;20.90;56.20;;;;;;5051739;28;20428;-75
2022/05/30 11:13:38;;;;;;;4.93;1.27;;;21.10;55.50;;;;;;5069559;28;20429;-77
2022/05/30 11:16:59;;;;;;;1.43;1.20;;;21.40;55.80;;;;;;5051285;28;20425;-76
2022/05/30 11:19:56;;;;;;;3.17;0.90;;;21.60;56.70;;;;;;4993112;28;20456;-76
2022/05/30 11:22:42;;;;;;;2.60;1.03;;;21.80;55.50;;;;;;5050993;28;20424;-77
2022/05/30 11:25:19;;;;;;;2.90;1.00;;;22.20;55.00;;;;;;5050916;28;20425;-76
2022/05/30 11:28:05;;;;;;;2.50;1.00;;;22.30;52.80;;;;;;5069164;28;20394;-76
2022/05/30 11:30:39;;;;;;;3.30;1.00;;;22.40;54.10;;;;;;5050153;28;20416;-76
2022/05/30 11:33:30;;;;;;;2.30;1.13;;;22.50;53.10;;;;;;5068453;28;20429;-76
2022/05/30 11:36:10;;;;;;;2.17;1.27;;;22.10;52.00;;;;;;5068484;28;20402;-76
2022/05/30 11:39:21;;;;;;;1.10;0.80;;;22.60;55.20;;;;;;5068433;28;20412;-77
2022/05/30 11:41:59;;;;;;;2.90;0.90;;;23.00;50.80;;;;;;5030115;28;20436;-76
2022/05/30 11:44:45;;;;;;;2.30;1.07;;;22.90;50.30;;;;;;5068193;28;20516;-76
2022/05/30 11:47:29;;;;;;;2.30;0.97;;;23.00;50.30;;;;;;5068341;28;21269;-76
2022/05/30 11:50:11;;;;;;;3.83;1.50;;;22.80;49.30;;;;;;5068378;28;20417;-76
2022/05/30 11:52:49;;;;;;;2.70;0.70;;;23.00;51.10;;;;;;5068144;28;20429;-76
2022/05/30 11:55:30;;;;;;;1.70;0.97;;;23.10;50.70;;;;;;5068235;28;20406;-76
2022/05/30 11:58:02;;;;;;;1.00;0.80;;;22.80;53.30;;;;;;5067987;28;20856;-76
2022/05/30 12:00:37;;;;;;;7.47;1.30;;;22.70;50.30;;;;;;5068092;28;21046;-77
2022/05/30 12:03:34;;;;;;;2.73;0.90;;;22.90;48.60;;;;;;5068156;28;20429;-76
2022/05/30 12:06:35;;;;;;;8.00;1.20;;;22.30;48.70;;;;;;5068823;28;20461;-79
2022/05/30 12:09:16;;;;;;;2.97;1.30;;;21.50;50.70;;;;;;5050765;28;20433;-79
2022/05/30 12:12:02;;;;;;;2.30;1.17;;;21.20;50.80;;;;;;5051547;28;20421;-79
2022/05/30 12:14:30;;;;;;;4.30;0.90;;;20.30;46.90;;;;;;5069435;28;20468;-78
2022/05/30 12:17:21;;;;;;;1.47;0.90;;;20.00;51.60;;;;;;5070335;28;20413;-79
2022/05/30 12:25:38;;;;;;;2.60;1.00;;;20.20;56.40;;;;;;5070029;28;20518;-78
2022/05/30 12:28:26;;;;;;;1.27;0.90;;;20.70;51.20;;;;;;5069574;28;20421;-78
2022/05/30 12:30:56;;;;;;;5.80;1.00;;;20.80;50.10;;;;;;5069424;28;20459;-78
2022/05/30 12:33:31;;;;;;;4.00;1.00;;;20.70;49.30;;;;;;5070169;28;20524;-78
2022/05/30 12:36:06;;;;;;;2.10;1.00;;;21.20;51.60;;;;;;5070672;28;20958;-76
2022/05/30 12:38:55;;;;;;;2.87;0.90;;;21.00;48.70;;;;;;5071229;28;20898;-79
2022/05/30 12:41:37;;;;;;;2.90;1.03;;;20.50;52.00;;;;;;5070717;28;20417;-78
2022/05/30 12:44:03;;;;;;;2.30;1.03;;;20.40;50.90;;;;;;5069241;28;20468;-77
2022/05/30 12:46:48;;;;;;;3.60;0.87;;;21.10;53.60;;;;;;5034421;28;20481;-78
2022/05/30 12:49:33;;;;;;;3.70;1.17;;;21.70;53.20;;;;;;5069651;28;20785;-79
2022/05/30 12:52:20;;;;;;;1.20;0.90;;;22.10;51.00;;;;;;5069428;28;20455;-79
2022/05/30 12:54:57;;;;;;;3.37;1.10;;;22.40;48.40;;;;;;5069133;28;20425;-78
2022/05/30 12:57:37;;;;;;;2.50;1.13;;;22.40;44.10;;;;;;5069153;28;20425;-78
2022/05/30 13:00:20;;;;;;;2.93;0.90;;;22.40;47.40;;;;;;5070679;28;20420;-78
2022/05/30 13:03:00;;;;;;;1.53;0.80;;;22.80;49.20;;;;;;5070225;28;20455;-78
2022/05/30 13:05:59;;;;;;;1.00;0.67;;;23.10;48.50;;;;;;5070488;28;20429;-79
2022/05/30 13:08:51;;;;;;;1.50;0.90;;;23.20;46.60;;;;;;5070720;28;20453;-79
2022/05/30 13:11:33;;;;;;;1.87;0.97;;;23.10;45.60;;;;;;5071005;28;20798;-78
2022/05/30 13:14:50;;;;;;;2.23;1.23;;;23.10;46.30;;;;;;5070798;28;20511;-79
2022/05/30 13:17:25;;;;;;;2.60;1.00;;;23.20;46.50;;;;;;4984017;28;20430;-78
2022/05/30 13:19:58;;;;;;;2.60;0.90;;;23.40;43.20;;;;;;5072581;28;20822;-79
2022/05/30 13:22:42;;;;;;;1.50;0.73;;;23.40;45.10;;;;;;5053986;28;20429;-77
2022/05/30 13:25:10;;;;;;;3.53;0.80;;;23.40;46.40;;;;;;5071550;28;20522;-79
2022/05/30 13:27:37;;;;;;;3.20;0.80;;;23.50;45.40;;;;;;5071713;28;20469;-80
2022/05/30 13:30:14;;;;;;;1.53;0.83;;;23.80;45.00;;;;;;5053336;28;20791;-77
2022/05/30 13:32:40;;;;;;;2.60;0.70;;;23.80;46.70;;;;;;5053296;28;20461;-78
2022/05/30 13:35:10;;;;;;;1.63;1.10;;;23.80;43.20;;;;;;5053724;28;20941;-79
2022/05/30 13:37:43;;;;;;;1.10;0.90;;;23.60;42.20;;;;;;5053529;28;20957;-76